createdAt,value
2022-10-11T00:01:25.325Z,8.30
2022-10-11T00:06:28.009Z,8.27
2022-10-11T00:11:31.106Z,8.26
2022-10-11T00:16:33.969Z,8.21
2022-10-11T00:21:36.861Z,8.15
2022-10-11T00:26:43.200Z,8.10
2022-10-11T00:31:48.545Z,8.02
2022-10-11T00:36:51.179Z,7.96
2022-10-11T00:41:54.176Z,7.89
2022-10-11T00:47:09.408Z,7.80
2022-10-11T00:52:42.170Z,7.70
2022-10-11T00:57:47.588Z,7.63
2022-10-11T01:02:50.531Z,7.53
2022-10-11T01:07:53.218Z,7.48
2022-10-11T01:13:37.775Z,7.46
2022-10-11T01:18:54.142Z,7.41
2022-10-11T01:25:00.656Z,7.32
2022-10-11T01:30:05.455Z,7.33
2022-10-11T01:35:24.227Z,7.34
2022-10-11T01:40:34.037Z,7.28
2022-10-11T01:45:37.277Z,7.13
2022-10-11T01:50:45.529Z,7.10
2022-10-11T01:55:56.331Z,7.09
2022-10-11T02:01:12.157Z,7.06
2022-10-11T02:06:33.008Z,7.06
2022-10-11T02:11:35.818Z,7.09
2022-10-11T02:17:08.937Z,7.17
2022-10-11T02:22:22.831Z,7.21
2022-10-11T02:27:28.052Z,7.23
2022-10-11T02:32:30.715Z,7.27
2022-10-11T02:38:05.537Z,7.33
2022-10-11T02:43:18.873Z,7.35
2022-10-11T02:48:21.668Z,7.32
2022-10-11T02:53:25.081Z,7.35
2022-10-11T02:58:28.100Z,7.41
2022-10-11T03:03:30.725Z,7.42
2022-10-11T03:08:33.678Z,7.36
2022-10-11T03:13:36.314Z,7.41
2022-10-11T03:18:39.109Z,7.43
2022-10-11T03:23:42.606Z,7.37
2022-10-11T03:28:45.387Z,7.32
2022-10-11T03:33:48.173Z,7.37
2022-10-11T03:38:50.805Z,7.46
2022-10-11T03:43:53.437Z,7.43
2022-10-11T03:48:56.179Z,7.39
2022-10-11T03:53:58.929Z,7.37
2022-10-11T03:59:02.348Z,7.40
2022-10-11T04:04:05.510Z,7.39
2022-10-11T04:09:08.241Z,7.42
2022-10-11T04:14:11.050Z,7.51
2022-10-11T04:19:13.780Z,7.56
2022-10-11T04:24:16.475Z,7.57
2022-10-11T04:29:19.219Z,7.57
2022-10-11T04:34:21.947Z,7.59
2022-10-11T04:39:24.858Z,7.59
2022-10-11T04:44:27.478Z,7.54
2022-10-11T04:49:30.171Z,7.44
2022-10-11T04:54:32.770Z,7.36
2022-10-11T04:59:35.459Z,7.33
2022-10-11T05:04:38.060Z,7.23
2022-10-11T05:09:40.745Z,7.12
2022-10-11T05:14:43.524Z,7.04
2022-10-11T05:19:46.241Z,7.01
2022-10-11T05:24:48.914Z,6.96
2022-10-11T05:29:51.604Z,6.89
2022-10-11T05:34:54.284Z,6.83
2022-10-11T05:39:56.950Z,6.86
2022-10-11T05:44:59.585Z,6.82
2022-10-11T05:50:02.399Z,6.71
2022-10-11T05:55:06.331Z,6.70
2022-10-11T06:00:10.458Z,6.76
2022-10-11T06:05:13.220Z,6.78
2022-10-11T06:10:15.942Z,6.75
2022-10-11T06:15:20.223Z,6.82
2022-10-11T06:20:23.261Z,6.97
2022-10-11T06:25:25.909Z,7.11
2022-10-11T06:30:28.749Z,7.32
2022-10-11T06:35:31.529Z,7.63
2022-10-11T06:40:34.302Z,8.02
2022-10-11T06:45:37.027Z,8.58
2022-10-11T06:50:58.692Z,9.10
2022-10-11T06:56:07.637Z,9.65
2022-10-11T07:01:13.357Z,10.16
2022-10-11T07:06:18.815Z,10.61
2022-10-11T07:11:23.827Z,11.00
2022-10-11T07:16:27.311Z,11.26
2022-10-11T07:21:30.768Z,11.42
2022-10-11T07:26:38.776Z,11.61
2022-10-11T07:31:43.571Z,11.68
2022-10-11T07:36:47.115Z,11.76
2022-10-11T07:41:49.803Z,11.92
2022-10-11T07:46:52.460Z,12.06
2022-10-11T07:51:56.385Z,12.11
2022-10-11T07:56:59.147Z,12.16
2022-10-11T08:02:02.293Z,12.23
2022-10-11T08:07:05.178Z,12.31
2022-10-11T08:12:07.946Z,12.46
2022-10-11T08:17:11.301Z,12.65
2022-10-11T08:22:14.073Z,12.78
2022-10-11T08:27:16.676Z,12.82
2022-10-11T08:32:19.301Z,12.97
2022-10-11T08:37:22.025Z,13.01
2022-10-11T08:42:46.048Z,13.08
2022-10-11T08:47:48.803Z,13.12
2022-10-11T08:53:04.583Z,13.17
2022-10-11T08:58:08.414Z,13.22
2022-10-11T09:03:35.002Z,13.19
2022-10-11T09:08:56.501Z,13.26
2022-10-11T09:14:21.916Z,13.32
2022-10-11T09:19:41.300Z,13.44
2022-10-11T09:25:05.787Z,13.57
2022-10-11T09:30:17.980Z,13.65
2022-10-11T09:35:22.032Z,13.65
2022-10-11T09:40:46.714Z,13.63
2022-10-11T09:45:49.862Z,13.77
2022-10-11T09:50:52.812Z,13.82
2022-10-11T09:56:02.738Z,13.68
2022-10-11T10:01:14.143Z,13.70
2022-10-11T10:06:24.723Z,13.77
2022-10-11T10:11:27.435Z,13.80
2022-10-11T10:16:32.248Z,13.81
2022-10-11T10:21:46.555Z,13.89
2022-10-11T10:27:17.138Z,13.99
2022-10-11T10:32:27.836Z,13.93
2022-10-11T10:38:15.652Z,13.85
2022-10-11T10:43:21.629Z,13.94
2022-10-11T10:49:11.628Z,14.29
2022-10-11T10:54:39.020Z,14.66
2022-10-11T11:00:04.808Z,14.83
2022-10-11T11:05:23.545Z,14.79
2022-10-11T11:10:44.014Z,14.53
2022-10-11T11:16:18.676Z,14.64
2022-10-11T11:21:43.917Z,14.30
2022-10-11T11:27:03.389Z,14.01
2022-10-11T11:32:17.508Z,13.92
2022-10-11T11:37:28.760Z,13.85
2022-10-11T11:42:39.284Z,13.88
2022-10-11T11:47:43.297Z,14.21
2022-10-11T11:52:47.733Z,14.43
2022-10-11T11:58:24.938Z,14.55
2022-10-11T12:03:31.986Z,15.04
2022-10-11T12:08:34.654Z,15.20
2022-10-11T12:13:38.138Z,15.12
2022-10-11T12:18:56.325Z,14.89
2022-10-11T12:24:20.772Z,14.85
2022-10-11T12:29:42.917Z,14.91
2022-10-11T12:34:45.580Z,14.97
2022-10-11T12:40:00.581Z,14.86
2022-10-11T12:45:13.018Z,14.65
2022-10-11T12:50:39.681Z,14.43
2022-10-11T12:55:48.452Z,14.41
2022-10-11T13:00:51.830Z,14.37
2022-10-11T13:06:00.456Z,14.24
2022-10-11T13:11:07.478Z,14.13
2022-10-11T13:16:18.373Z,14.00
2022-10-11T13:21:31.950Z,13.87
2022-10-11T13:26:34.856Z,13.92
2022-10-11T13:31:40.576Z,13.91
2022-10-11T13:36:43.386Z,13.92
2022-10-11T13:41:46.184Z,13.99
2022-10-11T13:46:48.969Z,14.11
2022-10-11T13:52:02.548Z,14.07
2022-10-11T13:57:05.226Z,13.93
2022-10-11T14:02:20.227Z,13.73
2022-10-11T14:07:27.489Z,13.62
2022-10-11T14:12:35.482Z,13.67
2022-10-11T14:17:41.833Z,14.06
2022-10-11T14:22:44.584Z,16.09
2022-10-11T14:27:49.950Z,18.17
2022-10-11T14:32:53.930Z,19.55
2022-10-11T14:37:56.629Z,18.89
2022-10-11T14:42:59.466Z,17.70
2022-10-11T14:48:03.523Z,16.74
2022-10-11T14:53:07.667Z,15.99
2022-10-11T14:58:11.976Z,15.19
2022-10-11T15:03:14.913Z,14.58
2022-10-11T15:08:17.976Z,14.18
2022-10-11T15:13:22.630Z,13.82
2022-10-11T15:18:25.335Z,13.53
2022-10-11T15:23:28.078Z,13.28
2022-10-11T15:28:32.268Z,13.09
2022-10-11T15:33:35.006Z,12.86
2022-10-11T15:38:37.754Z,12.66
2022-10-11T15:43:40.680Z,12.47
2022-10-11T15:48:43.915Z,12.30
2022-10-11T15:53:46.717Z,12.13
2022-10-11T15:58:49.408Z,11.93
2022-10-11T16:03:52.174Z,11.77
2022-10-11T16:08:54.870Z,11.62
2022-10-11T16:13:57.517Z,11.42
2022-10-11T16:19:00.141Z,11.24
2022-10-11T16:24:02.972Z,11.15
2022-10-11T16:29:05.773Z,11.11
2022-10-11T16:34:08.448Z,11.10
2022-10-11T16:39:16.458Z,11.07
2022-10-11T16:44:21.681Z,10.99
2022-10-11T16:49:27.021Z,10.88
2022-10-11T16:54:30.481Z,10.80
2022-10-11T16:59:33.310Z,10.72
2022-10-11T17:04:35.938Z,10.58
2022-10-11T17:09:44.298Z,10.42
2022-10-11T17:14:47.197Z,10.28
2022-10-11T17:19:50.179Z,10.16
2022-10-11T17:24:52.938Z,10.17
2022-10-11T17:29:55.768Z,10.20
2022-10-11T17:35:00.737Z,10.18
2022-10-11T17:40:04.740Z,10.13
2022-10-11T17:45:07.838Z,10.11
2022-10-11T17:50:10.637Z,10.09
2022-10-11T17:55:13.706Z,10.04
2022-10-11T18:00:16.768Z,9.98
2022-10-11T18:05:19.575Z,9.89
2022-10-11T18:10:22.456Z,9.77
2022-10-11T18:15:31.402Z,9.68
2022-10-11T18:20:34.218Z,9.46
2022-10-11T18:25:36.985Z,9.15
2022-10-11T18:30:44.186Z,8.89
2022-10-11T18:35:46.934Z,8.72
2022-10-11T18:40:49.531Z,8.62
2022-10-11T18:45:52.286Z,8.56
2022-10-11T18:51:06.004Z,8.54
2022-10-11T18:56:10.461Z,8.54
2022-10-11T19:01:15.974Z,8.47
2022-10-11T19:06:21.927Z,8.37
2022-10-11T19:11:25.568Z,8.32
2022-10-11T19:16:32.249Z,8.30
2022-10-11T19:21:35.090Z,8.30
2022-10-11T19:26:39.607Z,8.24
2022-10-11T19:31:48.524Z,8.22
2022-10-11T19:36:53.371Z,8.16
2022-10-11T19:41:56.411Z,8.07
2022-10-11T19:47:04.246Z,8.04
2022-10-11T19:52:09.444Z,8.09
2022-10-11T19:57:51.267Z,8.01
2022-10-11T20:02:54.133Z,7.83
2022-10-11T20:07:57.105Z,7.77
2022-10-11T20:13:03.285Z,7.72
2022-10-11T20:18:05.993Z,7.67
2022-10-11T20:23:18.170Z,7.62
2022-10-11T20:28:21.441Z,7.55
2022-10-11T20:33:25.130Z,7.49
2022-10-11T20:38:29.635Z,7.47
2022-10-11T20:43:33.724Z,7.49
2022-10-11T20:48:37.329Z,7.47
2022-10-11T21:01:43.118Z,7.27
2022-10-11T21:06:48.308Z,7.17
2022-10-11T21:21:21.971Z,7.00
2022-10-11T21:50:15.817Z,6.50
2022-10-11T22:13:32.195Z,6.37
2022-10-11T22:18:36.220Z,6.36
2022-10-11T22:23:40.393Z,6.34
2022-10-11T22:36:33.883Z,6.36
2022-10-11T22:54:23.180Z,6.42
2022-10-11T23:11:44.197Z,6.41
2022-10-11T23:23:57.063Z,6.34
2022-10-11T23:29:39.228Z,6.37
2022-10-11T23:47:27.269Z,6.11
2022-10-11T23:59:05.136Z,5.71
